createdAt,value
2023-02-01T00:44:56.082Z,118.46
2023-02-01T00:45:56.043Z,119.12
2023-02-01T00:46:56.117Z,120.84
2023-02-01T00:47:56.004Z,119.55
2023-02-01T00:48:55.988Z,115.21
2023-02-01T00:49:55.970Z,117.42
2023-02-01T00:50:55.969Z,116.05
2023-02-01T00:51:55.937Z,117.46
2023-02-01T00:52:55.907Z,117.65
2023-02-01T00:53:55.885Z,118.63
2023-02-01T00:54:55.861Z,120.55
2023-02-01T00:55:55.871Z,118.91
2023-02-01T00:56:55.836Z,118.44
2023-02-01T00:57:55.810Z,119.15
2023-02-01T00:58:55.807Z,120.66
2023-02-01T00:59:55.775Z,119.57
2023-02-01T01:00:55.790Z,118.99
2023-02-01T01:01:55.800Z,120.14
2023-02-01T01:02:55.718Z,119.21
2023-02-01T01:03:55.710Z,120.68
2023-02-01T01:04:55.696Z,120.45
2023-02-01T01:05:55.667Z,120.54
2023-02-01T01:06:55.675Z,120.71
2023-02-01T01:07:55.640Z,121.17
2023-02-01T01:08:55.640Z,119.84
2023-02-01T01:09:55.621Z,121.56
2023-02-01T01:10:55.587Z,119.69
2023-02-01T01:11:55.578Z,119.35
2023-02-01T01:12:55.566Z,121.10
2023-02-01T01:13:55.547Z,123.53
2023-02-01T01:14:55.541Z,123.94
2023-02-01T01:15:55.562Z,122.65
2023-02-01T01:16:55.518Z,122.95
2023-02-01T01:17:55.502Z,123.08
2023-02-01T01:18:55.480Z,123.26
2023-02-01T01:19:55.467Z,123.55
2023-02-01T01:20:55.442Z,124.26
2023-02-01T01:21:55.433Z,125.04
2023-02-01T01:22:55.419Z,127.17
2023-02-01T01:23:55.401Z,128.77
2023-02-01T01:24:55.373Z,127.33
2023-02-01T01:25:55.366Z,127.67
2023-02-01T01:26:55.405Z,127.68
2023-02-01T01:27:55.325Z,128.32
2023-02-01T01:28:55.314Z,128.20
2023-02-01T01:29:55.301Z,127.59
2023-02-01T01:30:55.323Z,126.25
2023-02-01T01:31:55.308Z,127.62
2023-02-01T01:32:55.239Z,127.66
2023-02-01T01:33:55.227Z,126.42
2023-02-01T01:34:55.210Z,127.97
2023-02-01T01:35:55.187Z,127.21
2023-02-01T01:36:55.189Z,126.61
2023-02-01T01:37:55.171Z,127.34
2023-02-01T01:38:55.159Z,129.22
2023-02-01T01:39:55.130Z,129.24
2023-02-01T01:40:55.120Z,126.10
2023-02-01T01:41:55.131Z,126.77
2023-02-01T01:42:55.092Z,129.92
2023-02-01T01:43:55.072Z,128.05
2023-02-01T01:44:55.073Z,128.59
2023-02-01T01:45:55.049Z,130.09
2023-02-01T01:46:55.120Z,129.07
2023-02-01T01:47:55.024Z,128.51
2023-02-01T01:48:55.011Z,130.08
2023-02-01T01:49:55.006Z,130.89
2023-02-01T02:07:54.775Z,129.03
2023-02-01T03:23:01.801Z,25.00
2023-02-01T03:24:01.753Z,25.00
2023-02-01T03:25:01.692Z,25.00
2023-02-01T03:26:01.637Z,25.00
2023-02-01T03:27:01.571Z,25.00
2023-02-01T03:28:01.522Z,27.99
2023-02-01T03:29:01.471Z,26.90
2023-02-01T03:30:01.400Z,29.00
2023-02-01T03:31:01.389Z,29.34
2023-02-01T03:32:01.364Z,29.89
2023-02-01T03:33:01.295Z,30.45
2023-02-01T03:34:01.202Z,32.01
2023-02-01T03:35:01.137Z,34.73
2023-02-01T03:36:01.081Z,37.61
2023-02-01T03:37:01.029Z,37.63
2023-02-01T03:38:00.966Z,37.58
2023-02-01T03:39:00.927Z,36.39
2023-02-01T03:40:00.868Z,38.76
2023-02-01T03:41:00.816Z,41.16
2023-02-01T03:42:00.767Z,38.13
2023-02-01T03:43:00.735Z,37.90
2023-02-01T03:44:00.648Z,38.42
2023-02-01T03:45:00.590Z,35.16
2023-02-01T03:46:00.542Z,41.07
2023-02-01T03:47:00.479Z,39.10
2023-02-01T03:48:00.419Z,36.58
2023-02-01T03:49:00.369Z,38.13
2023-02-01T03:50:00.308Z,40.81
2023-02-01T03:51:00.268Z,40.54
2023-02-01T03:52:00.242Z,42.13
2023-02-01T03:53:00.149Z,43.27
2023-02-01T03:54:00.138Z,44.56
2023-02-01T03:55:00.045Z,42.38
2023-02-01T03:56:00.029Z,40.18
2023-02-01T03:56:59.942Z,41.23
2023-02-01T03:57:59.882Z,41.11
2023-02-01T03:58:59.978Z,38.39
2023-02-01T03:59:59.769Z,39.36
2023-02-01T04:00:59.765Z,41.00
2023-02-01T04:01:59.686Z,39.65
2023-02-01T04:02:59.600Z,41.34
2023-02-01T04:03:59.550Z,38.78
2023-02-01T04:04:59.511Z,37.27
2023-02-01T04:05:59.438Z,39.53
2023-02-01T04:06:59.385Z,43.13
2023-02-01T04:07:59.337Z,45.29
2023-02-01T04:08:59.287Z,43.54
2023-02-01T04:09:59.223Z,46.76
2023-02-01T04:10:59.169Z,43.33
2023-02-01T04:11:59.113Z,47.07
2023-02-01T04:12:59.081Z,45.98
2023-02-01T04:13:59.004Z,47.03
2023-02-01T04:14:58.961Z,47.87
2023-02-01T04:15:58.885Z,43.72
2023-02-01T04:16:58.837Z,47.83
2023-02-01T04:17:58.789Z,45.68
2023-02-01T04:18:58.722Z,39.91
2023-02-01T04:22:58.478Z,40.38
2023-02-01T04:23:58.418Z,44.36
2023-02-01T04:24:58.365Z,46.88
2023-02-01T04:25:58.311Z,45.21
2023-02-01T04:26:58.254Z,45.91
2023-02-01T04:27:58.185Z,47.30
2023-02-01T04:28:58.143Z,41.81
2023-02-01T04:29:58.562Z,42.51
2023-02-01T04:30:58.172Z,45.99
2023-02-01T04:31:58.009Z,46.99
2023-02-01T04:32:57.951Z,48.74
2023-02-01T04:33:57.885Z,47.62
2023-02-01T04:34:57.826Z,50.39
2023-02-01T04:35:57.774Z,52.85
2023-02-01T04:36:57.731Z,54.58
2023-02-01T04:37:57.657Z,56.27
2023-02-01T04:38:57.624Z,55.06
2023-02-01T04:39:57.555Z,56.29
2023-02-01T04:40:57.497Z,56.21
2023-02-01T04:41:57.433Z,61.18
2023-02-01T04:42:57.377Z,58.50
2023-02-01T04:43:57.326Z,63.23
2023-02-01T04:44:57.286Z,57.75
2023-02-01T04:45:57.269Z,57.25
2023-02-01T04:46:57.183Z,54.16
2023-02-01T04:47:57.144Z,54.61
2023-02-01T04:48:57.088Z,60.16
2023-02-01T04:49:57.042Z,65.51
2023-02-01T04:50:57.012Z,63.63
2023-02-01T04:51:56.958Z,64.42
2023-02-01T04:52:56.881Z,65.29
2023-02-01T04:53:56.877Z,63.98
2023-02-01T04:54:59.040Z,63.56
2023-02-01T04:55:56.695Z,63.61
2023-02-01T04:56:56.648Z,63.57
2023-02-01T04:57:56.597Z,62.65
2023-02-01T04:58:56.556Z,64.94
2023-02-01T04:59:56.486Z,69.68
2023-02-01T05:00:56.547Z,71.08
2023-02-01T05:01:56.396Z,71.32
2023-02-01T05:02:56.334Z,70.37
2023-02-01T05:03:56.275Z,70.52
2023-02-01T05:04:56.241Z,70.88
2023-02-01T05:05:56.159Z,71.48
2023-02-01T05:06:56.103Z,72.44
2023-02-01T05:07:56.081Z,72.74
2023-02-01T05:08:56.001Z,76.09
2023-02-01T05:09:55.952Z,76.43
2023-02-01T05:10:55.890Z,78.73
2023-02-01T05:11:55.822Z,78.09
2023-02-01T05:12:55.781Z,80.92
2023-02-01T05:13:55.717Z,81.83
2023-02-01T05:14:55.673Z,80.78
2023-02-01T05:15:55.739Z,81.71
2023-02-01T05:16:55.562Z,79.16
2023-02-01T05:17:55.503Z,77.96
2023-02-01T05:18:55.455Z,82.09
2023-02-01T05:19:55.408Z,83.86
2023-02-01T05:20:55.342Z,83.52
2023-02-01T05:21:55.283Z,83.15
2023-02-01T05:22:55.252Z,86.39
2023-02-01T05:23:55.183Z,81.36
2023-02-01T05:24:55.156Z,86.14
2023-02-01T05:25:55.068Z,85.36
2023-02-01T05:26:55.055Z,86.57
2023-02-01T05:27:54.963Z,92.07
2023-02-01T05:28:54.922Z,91.47
2023-02-01T05:29:54.865Z,90.91
2023-02-01T05:30:54.977Z,92.81
2023-02-01T05:31:54.920Z,89.49
2023-02-01T05:32:54.707Z,93.47
2023-02-01T05:33:54.656Z,95.16
2023-02-01T05:34:54.603Z,93.70
2023-02-01T05:35:54.559Z,98.19
2023-02-01T05:36:54.504Z,98.38
2023-02-01T05:37:54.456Z,98.22
2023-02-01T05:38:54.400Z,99.30
2023-02-01T05:39:54.390Z,99.77
2023-02-01T05:40:54.308Z,101.03
2023-02-01T05:41:54.254Z,101.15
2023-02-01T05:42:54.204Z,103.28
2023-02-01T05:43:54.173Z,101.53
2023-02-01T05:44:54.099Z,100.49
2023-02-01T05:45:54.096Z,100.99
2023-02-01T05:46:54.002Z,101.31
2023-02-01T05:47:53.946Z,100.23
2023-02-01T05:48:53.908Z,98.85
2023-02-01T05:49:53.847Z,102.24
2023-02-01T05:50:53.804Z,101.72
2023-02-01T05:51:53.745Z,100.39
2023-02-01T05:52:53.691Z,101.62
2023-02-01T05:53:53.640Z,96.72
2023-02-01T05:54:53.611Z,102.54
2023-02-01T05:55:53.530Z,100.93
2023-02-01T05:56:53.471Z,103.21
2023-02-01T05:57:53.416Z,104.85
2023-02-01T05:58:53.380Z,106.18
2023-02-01T05:59:53.313Z,108.29
2023-02-01T06:00:53.263Z,109.78
2023-02-01T06:01:53.203Z,109.22
2023-02-01T06:02:53.302Z,111.83
2023-02-01T06:03:53.112Z,114.37
2023-02-01T06:04:53.059Z,113.41
2023-02-01T06:05:53.013Z,116.76
2023-02-01T06:06:52.950Z,114.62
2023-02-01T06:07:52.901Z,115.98
2023-02-01T06:08:52.835Z,115.16
2023-02-01T06:09:52.784Z,119.79
2023-02-01T06:10:52.732Z,117.68
2023-02-01T06:11:52.679Z,120.72
2023-02-01T06:12:52.641Z,119.16
2023-02-01T06:13:52.585Z,122.40
2023-02-01T06:14:52.536Z,119.82
2023-02-01T06:15:52.500Z,127.33
2023-02-01T06:16:52.426Z,125.77
2023-02-01T06:17:52.380Z,127.44
2023-02-01T06:18:52.351Z,124.05
2023-02-01T06:19:52.280Z,128.62
2023-02-01T06:20:52.246Z,127.37
2023-02-01T06:21:52.185Z,128.24
2023-02-01T06:22:52.132Z,130.47
2023-02-01T06:23:52.071Z,132.06
2023-02-01T06:24:52.038Z,132.19
2023-02-01T06:25:51.985Z,132.51
2023-02-01T09:06:43.147Z,75.15
2023-02-01T09:11:42.817Z,63.89
2023-02-01T09:12:42.743Z,67.40
2023-02-01T09:13:42.696Z,68.18
2023-02-01T09:14:42.636Z,66.41
2023-02-01T09:15:42.590Z,62.45
2023-02-01T09:16:42.488Z,67.60
2023-02-01T09:17:42.430Z,69.23
2023-02-01T09:18:50.882Z,69.79
2023-02-01T09:20:42.219Z,59.15
2023-02-01T09:21:42.155Z,52.75
2023-02-01T09:22:42.088Z,47.31
2023-02-01T09:23:42.056Z,43.15
2023-02-01T11:16:35.232Z,27.71
2023-02-01T11:17:35.070Z,26.99
2023-02-01T11:18:35.010Z,26.25
2023-02-01T11:19:34.971Z,25.00
2023-02-01T11:20:34.905Z,25.57
2023-02-01T11:21:34.854Z,28.97
2023-02-01T11:23:34.705Z,25.85
2023-02-01T11:24:34.677Z,28.59
2023-02-01T11:25:34.600Z,25.88
2023-02-01T11:26:34.616Z,29.30
2023-02-01T11:27:34.756Z,25.25
2023-02-01T11:28:34.417Z,25.39
2023-02-01T11:29:34.354Z,25.44
2023-02-01T11:30:34.343Z,25.72
2023-02-01T11:31:34.489Z,21.46
2023-02-01T11:32:34.174Z,23.15
2023-02-01T11:33:34.103Z,27.79
2023-02-01T11:34:34.051Z,25.00
2023-02-01T11:35:34.000Z,26.96
2023-02-01T11:36:33.949Z,27.58
2023-02-01T11:37:33.874Z,29.77
2023-02-01T11:38:33.809Z,25.00
2023-02-01T11:39:33.753Z,26.54
2023-02-01T11:40:33.680Z,25.35
2023-02-01T11:41:33.630Z,25.00
2023-02-01T11:42:33.561Z,28.00
2023-02-01T11:43:33.498Z,29.87
2023-02-01T11:44:33.444Z,32.96
2023-02-01T11:45:33.367Z,30.21
2023-02-01T11:46:33.351Z,35.50
2023-02-01T11:47:33.242Z,31.02
2023-02-01T11:48:33.181Z,29.17
2023-02-01T11:49:33.131Z,30.22
2023-02-01T11:50:33.063Z,27.08
2023-02-01T11:51:33.000Z,25.11
2023-02-01T11:52:32.985Z,29.91
2023-02-01T11:53:32.867Z,29.99
2023-02-01T11:54:32.825Z,29.59
2023-02-01T11:55:32.767Z,26.53
2023-02-01T11:56:32.697Z,24.71
2023-02-01T11:57:32.631Z,19.63
2023-02-01T11:58:32.570Z,26.49
2023-02-01T11:59:32.495Z,29.81
2023-02-01T12:00:32.446Z,31.84
2023-02-01T12:01:32.455Z,29.52
2023-02-01T12:02:32.307Z,32.64
2023-02-01T12:03:32.318Z,33.41
2023-02-01T12:04:32.176Z,35.16
2023-02-01T12:05:32.116Z,33.63
2023-02-01T12:06:32.090Z,29.03
2023-02-01T12:07:32.001Z,30.43
2023-02-01T12:18:32.229Z,30.08
2023-02-01T12:57:28.928Z,160.84
2023-02-01T12:58:28.891Z,151.03
2023-02-01T12:59:28.798Z,146.91
2023-02-01T13:00:28.740Z,140.85
2023-02-01T13:01:28.747Z,136.23
2023-02-01T13:02:28.706Z,134.45
2023-02-01T13:03:28.577Z,130.43
2023-02-01T13:04:28.540Z,124.63
2023-02-01T13:05:28.444Z,121.84
2023-02-01T13:06:28.395Z,116.59
2023-02-01T13:07:28.344Z,123.88
2023-02-01T13:08:28.265Z,120.85
2023-02-01T13:09:28.228Z,120.78
2023-02-01T13:10:28.201Z,117.99
2023-02-01T13:11:28.097Z,117.19
2023-02-01T13:12:28.033Z,116.83
2023-02-01T13:13:27.961Z,110.52
2023-02-01T13:14:27.902Z,110.54
2023-02-01T13:15:27.847Z,108.85
2023-02-01T13:16:27.836Z,102.97
2023-02-01T13:17:27.725Z,107.14
2023-02-01T13:18:27.653Z,101.61
2023-02-01T13:19:27.585Z,103.78
2023-02-01T13:20:27.520Z,98.38
2023-02-01T13:21:27.484Z,93.87
2023-02-01T13:22:27.418Z,91.30
2023-02-01T13:23:27.355Z,87.06
2023-02-01T13:24:27.271Z,82.46
2023-02-01T13:25:27.198Z,85.73
2023-02-01T13:26:27.181Z,87.53
2023-02-01T13:27:27.090Z,85.81
2023-02-01T13:28:27.019Z,81.47
2023-02-01T13:29:26.948Z,82.19
2023-02-01T13:30:26.971Z,79.29
2023-02-01T13:31:26.931Z,77.42
2023-02-01T13:33:50.435Z,77.82
2023-02-01T13:34:26.647Z,77.13
2023-02-01T13:35:26.583Z,72.93
2023-02-01T13:36:26.515Z,75.48
2023-02-01T13:37:26.465Z,74.64
2023-02-01T13:38:26.405Z,74.66
2023-02-01T13:39:26.368Z,77.58
2023-02-01T13:40:26.263Z,72.39
2023-02-01T13:41:26.204Z,64.81
2023-02-01T13:42:26.138Z,69.50
2023-02-01T13:43:26.098Z,69.17
2023-02-01T13:44:26.020Z,64.28
2023-02-01T13:45:26.544Z,65.20
2023-02-01T13:46:26.001Z,62.02
2023-02-01T13:47:25.840Z,62.51
2023-02-01T13:48:25.785Z,64.25
2023-02-01T13:49:25.704Z,65.73
2023-02-01T13:50:25.672Z,69.32
2023-02-01T13:51:25.597Z,63.31
2023-02-01T13:52:25.541Z,62.08
2023-02-01T13:53:25.471Z,57.72
2023-02-01T13:54:25.444Z,57.93
2023-02-01T13:55:25.827Z,58.85
2023-02-01T13:56:25.295Z,58.87
2023-02-01T13:57:25.256Z,57.44
2023-02-01T13:58:25.223Z,58.37
2023-02-01T13:59:25.108Z,57.14
2023-02-01T14:00:25.069Z,59.42
2023-02-01T14:01:25.102Z,61.35
2023-02-01T14:02:24.937Z,58.95
2023-02-01T14:03:24.894Z,61.68
2023-02-01T14:04:24.871Z,59.06
2023-02-01T14:05:25.217Z,59.13
2023-02-01T14:06:24.701Z,61.41
2023-02-01T14:07:24.635Z,67.27
2023-02-01T14:08:24.595Z,66.51
2023-02-01T14:09:24.524Z,69.44
2023-02-01T14:10:24.778Z,68.50
2023-02-01T14:11:24.424Z,70.01
2023-02-01T14:12:24.369Z,70.57
2023-02-01T14:13:24.310Z,70.00
2023-02-01T14:44:22.647Z,101.82
2023-02-01T14:48:22.416Z,97.20
2023-02-01T14:49:23.303Z,95.59
2023-02-01T14:50:22.322Z,96.68
2023-02-01T14:51:22.253Z,96.71
2023-02-01T14:52:22.198Z,94.44
2023-02-01T14:53:22.119Z,97.24
2023-02-01T14:54:22.095Z,93.86
2023-02-01T14:55:22.509Z,91.96
2023-02-01T17:31:13.699Z,89.68
2023-02-01T17:32:13.640Z,89.65
2023-02-01T17:33:22.382Z,83.62
2023-02-01T17:34:14.481Z,83.77
2023-02-01T17:35:13.436Z,84.38
2023-02-01T17:36:13.372Z,85.76
2023-02-01T17:37:13.339Z,86.82
2023-02-01T17:38:13.283Z,86.13
2023-02-01T17:39:13.227Z,86.11
2023-02-01T17:40:13.192Z,88.62
2023-02-01T17:41:13.147Z,93.28
2023-02-01T17:42:13.096Z,90.90
2023-02-01T17:43:13.029Z,92.81
2023-02-01T17:44:12.979Z,89.55
2023-02-01T17:45:12.932Z,94.17
2023-02-01T17:46:12.950Z,88.13
2023-02-01T17:47:12.835Z,83.44
2023-02-01T17:48:12.786Z,83.71
2023-02-01T17:49:12.741Z,84.90
2023-02-01T17:50:12.694Z,87.08
2023-02-01T17:51:12.633Z,86.88
2023-02-01T17:52:12.595Z,85.78
2023-02-01T17:53:12.537Z,87.12
2023-02-01T17:54:12.474Z,78.47
2023-02-01T17:55:12.469Z,82.20
2023-02-01T17:56:12.371Z,83.83
2023-02-01T17:57:12.335Z,81.15
2023-02-01T17:58:12.269Z,78.37
2023-02-01T17:59:12.218Z,77.55
2023-02-01T18:00:12.170Z,80.83
2023-02-01T18:01:12.140Z,77.18
2023-02-01T18:02:12.095Z,81.63
2023-02-01T18:03:12.035Z,76.10
2023-02-01T18:04:11.974Z,75.12
2023-02-01T20:14:04.387Z,65.54
2023-02-01T20:15:04.337Z,70.51
2023-02-01T20:16:04.310Z,70.79
2023-02-01T20:17:04.220Z,73.32
2023-02-01T20:18:04.175Z,69.24
2023-02-01T20:19:04.127Z,74.98
2023-02-01T20:20:04.077Z,73.37
2023-02-01T20:21:04.022Z,70.59
2023-02-01T20:22:03.975Z,65.91
2023-02-01T20:23:03.926Z,71.96
2023-02-01T20:24:03.877Z,70.07
2023-02-01T20:25:03.902Z,71.69
2023-02-01T20:26:04.616Z,69.72
2023-02-01T20:27:04.562Z,68.65
2023-02-01T20:28:04.527Z,67.22
2023-02-01T20:29:04.489Z,69.68
2023-02-01T20:30:04.415Z,68.84
2023-02-01T20:31:04.390Z,66.64
2023-02-01T20:32:04.295Z,69.80
2023-02-01T20:33:04.244Z,69.50
2023-02-01T20:34:04.186Z,73.29
2023-02-01T20:35:04.143Z,68.47
2023-02-01T20:36:04.093Z,72.46
2023-02-01T20:37:04.046Z,68.63
2023-02-01T20:38:03.991Z,71.27
2023-02-01T20:39:03.935Z,68.70
2023-02-01T20:40:04.446Z,71.96
2023-02-01T20:41:03.835Z,72.06
2023-02-01T20:42:03.791Z,71.62
2023-02-01T20:43:03.732Z,75.37
2023-02-01T20:44:03.692Z,76.95
2023-02-01T20:45:03.632Z,81.57
2023-02-01T20:46:03.581Z,79.18
2023-02-01T20:47:03.513Z,81.39
2023-02-01T20:48:03.467Z,79.29
2023-02-01T20:49:03.409Z,80.82
2023-02-01T20:50:03.371Z,77.09
2023-02-01T20:51:03.309Z,78.64
2023-02-01T20:52:03.268Z,74.55
2023-02-01T20:53:03.212Z,68.50
2023-02-01T20:54:03.163Z,68.53
2023-02-01T20:55:03.107Z,68.97
2023-02-01T20:56:03.054Z,69.55
2023-02-01T20:57:02.993Z,71.57
2023-02-01T20:58:02.974Z,75.85
2023-02-01T20:59:02.911Z,70.27
2023-02-01T21:00:02.857Z,68.88
2023-02-01T23:31:55.316Z,62.39
2023-02-01T23:32:55.100Z,61.58
2023-02-01T23:33:55.037Z,62.59
2023-02-01T23:34:54.983Z,66.00
2023-02-01T23:35:54.941Z,69.40
2023-02-01T23:36:54.868Z,77.93
2023-02-01T23:37:54.826Z,72.65
2023-02-01T23:38:54.765Z,65.31
2023-02-01T23:39:54.706Z,66.21
2023-02-01T23:40:54.646Z,64.30
2023-02-01T23:41:54.581Z,64.22
2023-02-01T23:42:54.538Z,66.84
2023-02-01T23:43:54.474Z,69.48
2023-02-01T23:44:54.415Z,66.31
2023-02-01T23:45:54.365Z,65.98
2023-02-01T23:46:54.306Z,64.25
2023-02-01T23:47:54.245Z,66.18
2023-02-01T23:48:54.184Z,67.88
2023-02-01T23:49:54.136Z,63.81
2023-02-01T23:50:54.074Z,63.21
2023-02-01T23:51:54.023Z,64.17
2023-02-01T23:52:53.975Z,59.63
2023-02-01T23:53:53.910Z,59.92
2023-02-01T23:54:53.876Z,60.20
2023-02-01T23:55:53.807Z,61.47
2023-02-01T23:56:53.769Z,62.04
2023-02-01T23:57:53.701Z,64.41
2023-02-01T23:58:53.645Z,65.88
2023-02-01T23:59:53.616Z,68.01
